sensor_id;sensor_type;location;lat;lon;timestamp;P1;durP1;ratioP1;P2;durP2;ratioP2
40591;SDS011;26301;42.832;23.918;2023-05-21T00:00:08;7.97;;;6.40;;
40591;SDS011;26301;42.832;23.918;2023-05-21T00:02:36;8.23;;;6.05;;
40591;SDS011;26301;42.832;23.918;2023-05-21T00:05:02;9.52;;;5.68;;
40591;SDS011;26301;42.832;23.918;2023-05-21T00:07:28;9.02;;;6.07;;
40591;SDS011;26301;42.832;23.918;2023-05-21T00:09:55;11.40;;;5.88;;
40591;SDS011;26301;42.832;23.918;2023-05-21T00:12:21;10.35;;;6.10;;
40591;SDS011;26301;42.832;23.918;2023-05-21T00:14:48;8.13;;;6.28;;
40591;SDS011;26301;42.832;23.918;2023-05-21T00:17:14;9.38;;;6.40;;
40591;SDS011;26301;42.832;23.918;2023-05-21T00:19:40;10.75;;;6.03;;
40591;SDS011;26301;42.832;23.918;2023-05-21T00:22:06;10.05;;;6.20;;
40591;SDS011;26301;42.832;23.918;2023-05-21T00:24:32;7.82;;;5.45;;
40591;SDS011;26301;42.832;23.918;2023-05-21T00:26:58;10.27;;;6.80;;
40591;SDS011;26301;42.832;23.918;2023-05-21T00:29:24;8.43;;;6.05;;
40591;SDS011;26301;42.832;23.918;2023-05-21T00:31:52;9.50;;;6.32;;
40591;SDS011;26301;42.832;23.918;2023-05-21T00:34:17;10.73;;;6.65;;
40591;SDS011;26301;42.832;23.918;2023-05-21T00:36:44;9.45;;;6.90;;
40591;SDS011;26301;42.832;23.918;2023-05-21T00:39:11;12.20;;;6.45;;
40591;SDS011;26301;42.832;23.918;2023-05-21T00:41:39;11.93;;;6.70;;
40591;SDS011;26301;42.832;23.918;2023-05-21T00:44:07;7.47;;;5.88;;
40591;SDS011;26301;42.832;23.918;2023-05-21T00:46:33;9.90;;;6.45;;
40591;SDS011;26301;42.832;23.918;2023-05-21T00:48:59;11.85;;;6.88;;
40591;SDS011;26301;42.832;23.918;2023-05-21T00:51:25;8.30;;;6.57;;
40591;SDS011;26301;42.832;23.918;2023-05-21T00:53:54;14.40;;;7.45;;
40591;SDS011;26301;42.832;23.918;2023-05-21T00:56:24;12.25;;;7.30;;
40591;SDS011;26301;42.832;23.918;2023-05-21T00:58:51;13.10;;;6.95;;
40591;SDS011;26301;42.832;23.918;2023-05-21T01:01:21;9.98;;;6.90;;
40591;SDS011;26301;42.832;23.918;2023-05-21T01:03:50;9.10;;;6.57;;
40591;SDS011;26301;42.832;23.918;2023-05-21T01:06:18;9.90;;;7.15;;
40591;SDS011;26301;42.832;23.918;2023-05-21T01:08:47;11.05;;;7.22;;
40591;SDS011;26301;42.832;23.918;2023-05-21T01:11:14;9.68;;;7.05;;
40591;SDS011;26301;42.832;23.918;2023-05-21T01:13:41;11.27;;;7.78;;
40591;SDS011;26301;42.832;23.918;2023-05-21T01:16:09;14.32;;;7.15;;
40591;SDS011;26301;42.832;23.918;2023-05-21T01:18:37;16.80;;;7.60;;
40591;SDS011;26301;42.832;23.918;2023-05-21T01:21:04;15.80;;;8.32;;
40591;SDS011;26301;42.832;23.918;2023-05-21T01:23:31;13.15;;;8.32;;
40591;SDS011;26301;42.832;23.918;2023-05-21T01:25:58;13.68;;;8.60;;
40591;SDS011;26301;42.832;23.918;2023-05-21T01:28:25;11.25;;;8.70;;
40591;SDS011;26301;42.832;23.918;2023-05-21T01:30:51;10.55;;;8.48;;
40591;SDS011;26301;42.832;23.918;2023-05-21T01:33:18;13.05;;;8.43;;
40591;SDS011;26301;42.832;23.918;2023-05-21T01:36:02;13.65;;;9.90;;
40591;SDS011;26301;42.832;23.918;2023-05-21T01:38:50;12.13;;;9.02;;
40591;SDS011;26301;42.832;23.918;2023-05-21T01:41:24;12.30;;;8.70;;
40591;SDS011;26301;42.832;23.918;2023-05-21T01:43:53;13.23;;;8.80;;
40591;SDS011;26301;42.832;23.918;2023-05-21T01:46:22;12.70;;;8.25;;
40591;SDS011;26301;42.832;23.918;2023-05-21T01:48:51;12.57;;;9.02;;
40591;SDS011;26301;42.832;23.918;2023-05-21T01:51:19;11.55;;;8.65;;
40591;SDS011;26301;42.832;23.918;2023-05-21T01:53:45;14.05;;;8.60;;
40591;SDS011;26301;42.832;23.918;2023-05-21T01:56:11;12.95;;;8.23;;
40591;SDS011;26301;42.832;23.918;2023-05-21T01:58:37;12.65;;;8.18;;
40591;SDS011;26301;42.832;23.918;2023-05-21T02:01:03;11.07;;;9.30;;
40591;SDS011;26301;42.832;23.918;2023-05-21T02:03:29;10.52;;;9.00;;
40591;SDS011;26301;42.832;23.918;2023-05-21T02:05:56;14.88;;;8.93;;
40591;SDS011;26301;42.832;23.918;2023-05-21T02:08:22;10.85;;;8.70;;
40591;SDS011;26301;42.832;23.918;2023-05-21T02:10:49;10.10;;;8.35;;
40591;SDS011;26301;42.832;23.918;2023-05-21T02:13:15;12.52;;;9.10;;
40591;SDS011;26301;42.832;23.918;2023-05-21T02:15:44;13.07;;;8.63;;
40591;SDS011;26301;42.832;23.918;2023-05-21T02:18:11;10.23;;;8.93;;
40591;SDS011;26301;42.832;23.918;2023-05-21T02:20:40;15.75;;;8.38;;
40591;SDS011;26301;42.832;23.918;2023-05-21T02:23:07;14.73;;;9.25;;
40591;SDS011;26301;42.832;23.918;2023-05-21T02:25:34;12.38;;;9.07;;
40591;SDS011;26301;42.832;23.918;2023-05-21T02:28:00;12.05;;;8.77;;
40591;SDS011;26301;42.832;23.918;2023-05-21T02:30:26;10.63;;;9.05;;
40591;SDS011;26301;42.832;23.918;2023-05-21T02:32:54;11.80;;;8.82;;
40591;SDS011;26301;42.832;23.918;2023-05-21T02:35:22;12.82;;;8.43;;
40591;SDS011;26301;42.832;23.918;2023-05-21T02:37:48;10.75;;;8.60;;
40591;SDS011;26301;42.832;23.918;2023-05-21T02:40:15;12.60;;;10.10;;
40591;SDS011;26301;42.832;23.918;2023-05-21T02:42:41;11.77;;;9.23;;
40591;SDS011;26301;42.832;23.918;2023-05-21T02:45:08;11.25;;;8.63;;
40591;SDS011;26301;42.832;23.918;2023-05-21T02:47:35;14.95;;;9.75;;
40591;SDS011;26301;42.832;23.918;2023-05-21T02:50:05;12.95;;;8.63;;
40591;SDS011;26301;42.832;23.918;2023-05-21T02:52:32;13.30;;;9.43;;
40591;SDS011;26301;42.832;23.918;2023-05-21T02:54:58;11.15;;;8.88;;
40591;SDS011;26301;42.832;23.918;2023-05-21T02:57:24;11.73;;;8.52;;
40591;SDS011;26301;42.832;23.918;2023-05-21T02:59:50;10.32;;;8.93;;
40591;SDS011;26301;42.832;23.918;2023-05-21T03:02:16;16.05;;;8.82;;
40591;SDS011;26301;42.832;23.918;2023-05-21T03:04:42;16.17;;;9.95;;
40591;SDS011;26301;42.832;23.918;2023-05-21T03:07:14;11.60;;;9.25;;
40591;SDS011;26301;42.832;23.918;2023-05-21T03:09:44;12.27;;;9.32;;
40591;SDS011;26301;42.832;23.918;2023-05-21T03:12:10;13.52;;;8.82;;
40591;SDS011;26301;42.832;23.918;2023-05-21T03:14:37;12.95;;;9.73;;
40591;SDS011;26301;42.832;23.918;2023-05-21T03:17:03;17.20;;;10.93;;
40591;SDS011;26301;42.832;23.918;2023-05-21T03:19:32;14.93;;;10.75;;
40591;SDS011;26301;42.832;23.918;2023-05-21T03:22:01;12.32;;;9.63;;
40591;SDS011;26301;42.832;23.918;2023-05-21T03:24:28;15.05;;;10.75;;
40591;SDS011;26301;42.832;23.918;2023-05-21T03:26:55;15.13;;;9.93;;
40591;SDS011;26301;42.832;23.918;2023-05-21T03:29:21;11.45;;;10.25;;
40591;SDS011;26301;42.832;23.918;2023-05-21T03:31:47;12.48;;;9.88;;
40591;SDS011;26301;42.832;23.918;2023-05-21T03:34:20;15.30;;;9.88;;
40591;SDS011;26301;42.832;23.918;2023-05-21T03:36:46;13.13;;;9.55;;
40591;SDS011;26301;42.832;23.918;2023-05-21T03:39:13;16.92;;;9.73;;
40591;SDS011;26301;42.832;23.918;2023-05-21T03:41:39;11.60;;;8.82;;
40591;SDS011;26301;42.832;23.918;2023-05-21T03:44:05;13.23;;;9.13;;
40591;SDS011;26301;42.832;23.918;2023-05-21T03:46:31;11.77;;;9.93;;
40591;SDS011;26301;42.832;23.918;2023-05-21T03:48:57;14.32;;;9.43;;
40591;SDS011;26301;42.832;23.918;2023-05-21T03:51:23;14.90;;;10.82;;
40591;SDS011;26301;42.832;23.918;2023-05-21T03:53:50;11.93;;;10.25;;
40591;SDS011;26301;42.832;23.918;2023-05-21T03:56:16;14.63;;;10.82;;
40591;SDS011;26301;42.832;23.918;2023-05-21T03:58:42;16.15;;;10.95;;
40591;SDS011;26301;42.832;23.918;2023-05-21T04:01:08;12.23;;;10.25;;
40591;SDS011;26301;42.832;23.918;2023-05-21T04:03:34;14.02;;;11.10;;
40591;SDS011;26301;42.832;23.918;2023-05-21T04:06:01;12.35;;;10.63;;
40591;SDS011;26301;42.832;23.918;2023-05-21T04:08:28;13.48;;;10.05;;
40591;SDS011;26301;42.832;23.918;2023-05-21T04:10:55;15.85;;;10.13;;
40591;SDS011;26301;42.832;23.918;2023-05-21T04:13:21;16.50;;;10.73;;
40591;SDS011;26301;42.832;23.918;2023-05-21T04:15:47;16.90;;;10.60;;
40591;SDS011;26301;42.832;23.918;2023-05-21T04:18:13;12.63;;;10.43;;
40591;SDS011;26301;42.832;23.918;2023-05-21T04:20:41;13.95;;;9.75;;
40591;SDS011;26301;42.832;23.918;2023-05-21T04:23:07;10.77;;;9.35;;
40591;SDS011;26301;42.832;23.918;2023-05-21T04:25:34;12.93;;;9.90;;
40591;SDS011;26301;42.832;23.918;2023-05-21T04:28:00;11.95;;;9.65;;
40591;SDS011;26301;42.832;23.918;2023-05-21T04:30:26;12.75;;;10.15;;
40591;SDS011;26301;42.832;23.918;2023-05-21T04:32:52;14.30;;;9.77;;
40591;SDS011;26301;42.832;23.918;2023-05-21T04:35:19;13.77;;;8.88;;
40591;SDS011;26301;42.832;23.918;2023-05-21T04:37:45;12.27;;;8.82;;
40591;SDS011;26301;42.832;23.918;2023-05-21T04:40:12;14.00;;;8.80;;
40591;SDS011;26301;42.832;23.918;2023-05-21T04:42:43;34.75;;;9.73;;
40591;SDS011;26301;42.832;23.918;2023-05-21T04:45:12;18.00;;;11.02;;
40591;SDS011;26301;42.832;23.918;2023-05-21T04:47:38;13.20;;;9.25;;
40591;SDS011;26301;42.832;23.918;2023-05-21T04:50:05;13.50;;;9.40;;
40591;SDS011;26301;42.832;23.918;2023-05-21T04:52:31;10.88;;;8.30;;
40591;SDS011;26301;42.832;23.918;2023-05-21T04:54:58;12.25;;;8.95;;
40591;SDS011;26301;42.832;23.918;2023-05-21T04:57:25;13.55;;;9.50;;
40591;SDS011;26301;42.832;23.918;2023-05-21T04:59:52;16.70;;;12.43;;
40591;SDS011;26301;42.832;23.918;2023-05-21T05:02:18;17.65;;;12.25;;
40591;SDS011;26301;42.832;23.918;2023-05-21T05:04:44;10.88;;;9.52;;
40591;SDS011;26301;42.832;23.918;2023-05-21T05:07:10;10.73;;;9.48;;
40591;SDS011;26301;42.832;23.918;2023-05-21T05:09:37;12.32;;;10.63;;
40591;SDS011;26301;42.832;23.918;2023-05-21T05:12:03;14.15;;;10.88;;
40591;SDS011;26301;42.832;23.918;2023-05-21T05:14:30;14.77;;;10.38;;
40591;SDS011;26301;42.832;23.918;2023-05-21T05:16:55;14.05;;;10.55;;
40591;SDS011;26301;42.832;23.918;2023-05-21T05:19:25;11.65;;;10.45;;
40591;SDS011;26301;42.832;23.918;2023-05-21T05:21:51;12.95;;;10.32;;
40591;SDS011;26301;42.832;23.918;2023-05-21T05:24:17;12.38;;;11.07;;
40591;SDS011;26301;42.832;23.918;2023-05-21T05:26:43;19.98;;;12.90;;
40591;SDS011;26301;42.832;23.918;2023-05-21T05:29:09;18.05;;;13.80;;
40591;SDS011;26301;42.832;23.918;2023-05-21T05:31:41;14.65;;;13.00;;
40591;SDS011;26301;42.832;23.918;2023-05-21T05:34:07;10.15;;;8.63;;
40591;SDS011;26301;42.832;23.918;2023-05-21T05:36:33;9.60;;;7.97;;
40591;SDS011;26301;42.832;23.918;2023-05-21T05:39:01;15.05;;;10.52;;
40591;SDS011;26301;42.832;23.918;2023-05-21T05:41:27;17.00;;;12.35;;
40591;SDS011;26301;42.832;23.918;2023-05-21T05:43:53;19.15;;;13.70;;
40591;SDS011;26301;42.832;23.918;2023-05-21T05:46:19;16.63;;;11.98;;
40591;SDS011;26301;42.832;23.918;2023-05-21T05:48:46;18.13;;;12.10;;
40591;SDS011;26301;42.832;23.918;2023-05-21T05:51:12;17.85;;;14.25;;
40591;SDS011;26301;42.832;23.918;2023-05-21T05:53:39;23.10;;;11.25;;
40591;SDS011;26301;42.832;23.918;2023-05-21T05:56:05;18.42;;;11.77;;
40591;SDS011;26301;42.832;23.918;2023-05-21T05:58:32;14.70;;;10.35;;
40591;SDS011;26301;42.832;23.918;2023-05-21T06:00:57;15.00;;;10.90;;
40591;SDS011;26301;42.832;23.918;2023-05-21T06:03:23;12.45;;;10.30;;
40591;SDS011;26301;42.832;23.918;2023-05-21T06:05:50;9.55;;;8.57;;
40591;SDS011;26301;42.832;23.918;2023-05-21T06:08:17;12.57;;;8.70;;
40591;SDS011;26301;42.832;23.918;2023-05-21T06:10:43;12.82;;;10.10;;
40591;SDS011;26301;42.832;23.918;2023-05-21T06:13:09;14.90;;;9.93;;
40591;SDS011;26301;42.832;23.918;2023-05-21T06:15:35;12.73;;;10.23;;
40591;SDS011;26301;42.832;23.918;2023-05-21T06:18:03;12.75;;;9.25;;
40591;SDS011;26301;42.832;23.918;2023-05-21T06:20:29;11.63;;;8.40;;
40591;SDS011;26301;42.832;23.918;2023-05-21T06:22:55;16.65;;;10.32;;
40591;SDS011;26301;42.832;23.918;2023-05-21T06:25:21;15.68;;;9.68;;
40591;SDS011;26301;42.832;23.918;2023-05-21T06:27:49;12.07;;;9.18;;
40591;SDS011;26301;42.832;23.918;2023-05-21T06:30:15;9.93;;;8.10;;
40591;SDS011;26301;42.832;23.918;2023-05-21T06:32:42;9.13;;;6.50;;
40591;SDS011;26301;42.832;23.918;2023-05-21T06:35:08;10.75;;;8.70;;
40591;SDS011;26301;42.832;23.918;2023-05-21T06:37:34;11.30;;;8.68;;
40591;SDS011;26301;42.832;23.918;2023-05-21T06:40:01;8.65;;;7.70;;
40591;SDS011;26301;42.832;23.918;2023-05-21T06:42:27;20.25;;;8.05;;
40591;SDS011;26301;42.832;23.918;2023-05-21T06:44:53;12.55;;;7.82;;
40591;SDS011;26301;42.832;23.918;2023-05-21T06:47:19;10.32;;;7.10;;
40591;SDS011;26301;42.832;23.918;2023-05-21T06:49:45;9.13;;;7.65;;
40591;SDS011;26301;42.832;23.918;2023-05-21T06:52:11;10.38;;;7.75;;
40591;SDS011;26301;42.832;23.918;2023-05-21T06:54:37;10.50;;;6.93;;
40591;SDS011;26301;42.832;23.918;2023-05-21T06:57:04;10.10;;;7.68;;
40591;SDS011;26301;42.832;23.918;2023-05-21T06:59:30;10.05;;;6.65;;
40591;SDS011;26301;42.832;23.918;2023-05-21T07:01:56;6.88;;;5.53;;
40591;SDS011;26301;42.832;23.918;2023-05-21T07:04:22;17.77;;;9.15;;
40591;SDS011;26301;42.832;23.918;2023-05-21T07:06:48;12.38;;;7.53;;
40591;SDS011;26301;42.832;23.918;2023-05-21T07:09:16;8.57;;;5.93;;
40591;SDS011;26301;42.832;23.918;2023-05-21T07:11:43;12.82;;;8.98;;
40591;SDS011;26301;42.832;23.918;2023-05-21T07:14:09;13.77;;;8.85;;
40591;SDS011;26301;42.832;23.918;2023-05-21T07:16:35;8.55;;;6.40;;
40591;SDS011;26301;42.832;23.918;2023-05-21T07:19:01;7.45;;;5.93;;
40591;SDS011;26301;42.832;23.918;2023-05-21T07:21:27;11.38;;;5.47;;
40591;SDS011;26301;42.832;23.918;2023-05-21T07:23:53;10.02;;;6.30;;
40591;SDS011;26301;42.832;23.918;2023-05-21T07:26:19;8.77;;;5.43;;
40591;SDS011;26301;42.832;23.918;2023-05-21T07:28:45;10.73;;;6.57;;
40591;SDS011;26301;42.832;23.918;2023-05-21T07:31:11;7.13;;;5.28;;
40591;SDS011;26301;42.832;23.918;2023-05-21T07:33:37;9.55;;;6.00;;
40591;SDS011;26301;42.832;23.918;2023-05-21T07:36:04;8.10;;;5.20;;
40591;SDS011;26301;42.832;23.918;2023-05-21T07:38:30;7.30;;;5.20;;
40591;SDS011;26301;42.832;23.918;2023-05-21T07:40:57;7.35;;;5.50;;
40591;SDS011;26301;42.832;23.918;2023-05-21T07:43:23;7.90;;;5.30;;
40591;SDS011;26301;42.832;23.918;2023-05-21T07:45:49;8.73;;;6.30;;
40591;SDS011;26301;42.832;23.918;2023-05-21T07:48:15;7.93;;;4.85;;
40591;SDS011;26301;42.832;23.918;2023-05-21T07:50:42;7.72;;;5.00;;
40591;SDS011;26301;42.832;23.918;2023-05-21T07:53:09;7.43;;;5.55;;
40591;SDS011;26301;42.832;23.918;2023-05-21T07:55:35;9.02;;;5.28;;
40591;SDS011;26301;42.832;23.918;2023-05-21T07:58:02;6.80;;;5.18;;
40591;SDS011;26301;42.832;23.918;2023-05-21T08:00:29;8.45;;;5.43;;
40591;SDS011;26301;42.832;23.918;2023-05-21T08:03:07;9.52;;;6.03;;
40591;SDS011;26301;42.832;23.918;2023-05-21T08:05:35;8.27;;;5.50;;
40591;SDS011;26301;42.832;23.918;2023-05-21T08:08:02;6.85;;;5.45;;
40591;SDS011;26301;42.832;23.918;2023-05-21T08:10:29;6.55;;;5.22;;
40591;SDS011;26301;42.832;23.918;2023-05-21T08:12:55;6.72;;;4.93;;
40591;SDS011;26301;42.832;23.918;2023-05-21T08:15:21;10.27;;;5.60;;
40591;SDS011;26301;42.832;23.918;2023-05-21T08:17:47;9.93;;;4.90;;
40591;SDS011;26301;42.832;23.918;2023-05-21T08:20:13;10.07;;;5.00;;
40591;SDS011;26301;42.832;23.918;2023-05-21T08:22:40;7.00;;;4.78;;
40591;SDS011;26301;42.832;23.918;2023-05-21T08:25:07;8.35;;;5.20;;
40591;SDS011;26301;42.832;23.918;2023-05-21T08:27:34;6.63;;;4.38;;
40591;SDS011;26301;42.832;23.918;2023-05-21T08:30:00;6.88;;;5.40;;
40591;SDS011;26301;42.832;23.918;2023-05-21T08:32:26;10.07;;;5.38;;
40591;SDS011;26301;42.832;23.918;2023-05-21T08:34:54;9.23;;;4.60;;
40591;SDS011;26301;42.832;23.918;2023-05-21T08:37:21;7.97;;;5.13;;
40591;SDS011;26301;42.832;23.918;2023-05-21T08:39:49;7.93;;;4.88;;
40591;SDS011;26301;42.832;23.918;2023-05-21T08:42:27;6.70;;;4.15;;
40591;SDS011;26301;42.832;23.918;2023-05-21T08:45:07;6.68;;;4.90;;
40591;SDS011;26301;42.832;23.918;2023-05-21T08:47:35;8.38;;;4.45;;
40591;SDS011;26301;42.832;23.918;2023-05-21T08:50:06;7.45;;;4.80;;
40591;SDS011;26301;42.832;23.918;2023-05-21T08:52:38;7.97;;;4.53;;
40591;SDS011;26301;42.832;23.918;2023-05-21T08:55:05;9.57;;;5.10;;
40591;SDS011;26301;42.832;23.918;2023-05-21T08:57:32;5.40;;;4.30;;
40591;SDS011;26301;42.832;23.918;2023-05-21T08:59:59;7.22;;;4.38;;
40591;SDS011;26301;42.832;23.918;2023-05-21T09:02:27;7.00;;;4.50;;
40591;SDS011;26301;42.832;23.918;2023-05-21T09:04:58;4.85;;;4.07;;
40591;SDS011;26301;42.832;23.918;2023-05-21T09:07:28;5.15;;;4.18;;
40591;SDS011;26301;42.832;23.918;2023-05-21T09:09:56;4.50;;;3.83;;
40591;SDS011;26301;42.832;23.918;2023-05-21T09:12:27;6.73;;;4.10;;
40591;SDS011;26301;42.832;23.918;2023-05-21T09:14:53;9.68;;;4.28;;
40591;SDS011;26301;42.832;23.918;2023-05-21T09:17:22;7.70;;;4.25;;
40591;SDS011;26301;42.832;23.918;2023-05-21T09:22:42;10.05;;;4.65;;
40591;SDS011;26301;42.832;23.918;2023-05-21T09:25:09;5.53;;;3.83;;
40591;SDS011;26301;42.832;23.918;2023-05-21T09:27:36;8.05;;;4.05;;
40591;SDS011;26301;42.832;23.918;2023-05-21T09:30:04;4.85;;;3.83;;
40591;SDS011;26301;42.832;23.918;2023-05-21T09:32:40;7.93;;;3.97;;
40591;SDS011;26301;42.832;23.918;2023-05-21T09:35:08;19.45;;;8.50;;
40591;SDS011;26301;42.832;23.918;2023-05-21T09:37:38;7.57;;;4.38;;
40591;SDS011;26301;42.832;23.918;2023-05-21T09:40:12;6.35;;;4.05;;
40591;SDS011;26301;42.832;23.918;2023-05-21T09:42:43;7.30;;;4.05;;
40591;SDS011;26301;42.832;23.918;2023-05-21T09:45:23;7.55;;;4.30;;
40591;SDS011;26301;42.832;23.918;2023-05-21T09:47:50;7.60;;;3.80;;
40591;SDS011;26301;42.832;23.918;2023-05-21T09:52:48;7.82;;;4.20;;
40591;SDS011;26301;42.832;23.918;2023-05-21T09:55:17;7.88;;;4.57;;
40591;SDS011;26301;42.832;23.918;2023-05-21T09:57:46;8.45;;;3.85;;
40591;SDS011;26301;42.832;23.918;2023-05-21T10:00:18;8.05;;;4.20;;
40591;SDS011;26301;42.832;23.918;2023-05-21T10:02:49;6.75;;;4.40;;
40591;SDS011;26301;42.832;23.918;2023-05-21T10:05:18;7.28;;;4.32;;
40591;SDS011;26301;42.832;23.918;2023-05-21T10:07:49;9.88;;;4.60;;
40591;SDS011;26301;42.832;23.918;2023-05-21T10:10:18;11.30;;;5.90;;
40591;SDS011;26301;42.832;23.918;2023-05-21T10:12:46;10.23;;;4.32;;
40591;SDS011;26301;42.832;23.918;2023-05-21T10:15:20;7.75;;;4.15;;
40591;SDS011;26301;42.832;23.918;2023-05-21T10:17:48;7.43;;;4.72;;
40591;SDS011;26301;42.832;23.918;2023-05-21T10:20:15;14.30;;;4.95;;
40591;SDS011;26301;42.832;23.918;2023-05-21T10:22:41;4.75;;;3.70;;
40591;SDS011;26301;42.832;23.918;2023-05-21T10:25:09;7.82;;;4.72;;
40591;SDS011;26301;42.832;23.918;2023-05-21T10:27:37;6.68;;;3.67;;
40591;SDS011;26301;42.832;23.918;2023-05-21T10:30:04;8.52;;;4.70;;
40591;SDS011;26301;42.832;23.918;2023-05-21T10:32:31;7.03;;;4.47;;
40591;SDS011;26301;42.832;23.918;2023-05-21T10:34:58;10.85;;;5.88;;
40591;SDS011;26301;42.832;23.918;2023-05-21T10:37:26;7.97;;;4.63;;
40591;SDS011;26301;42.832;23.918;2023-05-21T10:39:52;10.73;;;4.47;;
40591;SDS011;26301;42.832;23.918;2023-05-21T10:47:52;12.40;;;5.93;;
40591;SDS011;26301;42.832;23.918;2023-05-21T10:56:38;10.52;;;5.40;;
40591;SDS011;26301;42.832;23.918;2023-05-21T11:01:47;11.30;;;4.60;;
40591;SDS011;26301;42.832;23.918;2023-05-21T11:04:27;12.30;;;4.90;;
40591;SDS011;26301;42.832;23.918;2023-05-21T11:06:54;8.50;;;4.50;;
40591;SDS011;26301;42.832;23.918;2023-05-21T11:09:22;8.82;;;4.45;;
40591;SDS011;26301;42.832;23.918;2023-05-21T11:11:49;15.80;;;5.07;;
40591;SDS011;26301;42.832;23.918;2023-05-21T11:14:32;7.78;;;4.10;;
40591;SDS011;26301;42.832;23.918;2023-05-21T11:17:15;9.50;;;4.03;;
40591;SDS011;26301;42.832;23.918;2023-05-21T11:20:12;9.35;;;4.22;;
40591;SDS011;26301;42.832;23.918;2023-05-21T11:22:38;6.22;;;4.05;;
40591;SDS011;26301;42.832;23.918;2023-05-21T11:25:08;6.43;;;4.05;;
40591;SDS011;26301;42.832;23.918;2023-05-21T11:27:34;7.55;;;4.35;;
40591;SDS011;26301;42.832;23.918;2023-05-21T11:32:35;7.22;;;3.63;;
40591;SDS011;26301;42.832;23.918;2023-05-21T11:35:03;12.38;;;4.35;;
40591;SDS011;26301;42.832;23.918;2023-05-21T11:37:29;31.40;;;18.13;;
40591;SDS011;26301;42.832;23.918;2023-05-21T11:40:01;7.45;;;3.88;;
40591;SDS011;26301;42.832;23.918;2023-05-21T11:42:41;7.45;;;3.97;;
40591;SDS011;26301;42.832;23.918;2023-05-21T11:45:08;6.28;;;3.67;;
40591;SDS011;26301;42.832;23.918;2023-05-21T11:47:34;6.07;;;3.35;;
40591;SDS011;26301;42.832;23.918;2023-05-21T11:50:01;8.07;;;4.07;;
40591;SDS011;26301;42.832;23.918;2023-05-21T11:52:28;6.70;;;3.65;;
40591;SDS011;26301;42.832;23.918;2023-05-21T11:54:55;10.90;;;4.10;;
40591;SDS011;26301;42.832;23.918;2023-05-21T11:57:26;6.47;;;3.53;;
40591;SDS011;26301;42.832;23.918;2023-05-21T11:59:56;5.38;;;3.30;;
40591;SDS011;26301;42.832;23.918;2023-05-21T12:02:26;7.75;;;4.32;;
40591;SDS011;26301;42.832;23.918;2023-05-21T12:04:57;7.18;;;3.83;;
40591;SDS011;26301;42.832;23.918;2023-05-21T12:07:25;11.80;;;5.20;;
40591;SDS011;26301;42.832;23.918;2023-05-21T12:09:54;7.40;;;4.72;;
40591;SDS011;26301;42.832;23.918;2023-05-21T12:12:20;9.45;;;4.20;;
40591;SDS011;26301;42.832;23.918;2023-05-21T12:14:49;7.72;;;4.03;;
40591;SDS011;26301;42.832;23.918;2023-05-21T12:17:16;5.25;;;3.47;;
40591;SDS011;26301;42.832;23.918;2023-05-21T12:19:47;6.22;;;3.80;;
40591;SDS011;26301;42.832;23.918;2023-05-21T12:22:15;10.20;;;3.78;;
40591;SDS011;26301;42.832;23.918;2023-05-21T12:24:41;15.82;;;4.18;;
40591;SDS011;26301;42.832;23.918;2023-05-21T12:27:11;6.15;;;3.30;;
40591;SDS011;26301;42.832;23.918;2023-05-21T12:29:44;7.72;;;3.42;;
40591;SDS011;26301;42.832;23.918;2023-05-21T12:37:16;5.60;;;3.15;;
40591;SDS011;26301;42.832;23.918;2023-05-21T12:39:47;7.07;;;3.67;;
40591;SDS011;26301;42.832;23.918;2023-05-21T12:42:15;10.32;;;3.67;;
40591;SDS011;26301;42.832;23.918;2023-05-21T12:44:47;12.65;;;3.80;;
40591;SDS011;26301;42.832;23.918;2023-05-21T12:49:40;6.05;;;3.53;;
40591;SDS011;26301;42.832;23.918;2023-05-21T12:52:14;5.95;;;3.30;;
40591;SDS011;26301;42.832;23.918;2023-05-21T12:54:44;9.75;;;4.28;;
40591;SDS011;26301;42.832;23.918;2023-05-21T12:57:14;8.20;;;3.50;;
40591;SDS011;26301;42.832;23.918;2023-05-21T12:59:45;5.57;;;3.38;;
40591;SDS011;26301;42.832;23.918;2023-05-21T13:04:58;7.38;;;3.47;;
40591;SDS011;26301;42.832;23.918;2023-05-21T13:07:29;9.43;;;4.28;;
40591;SDS011;26301;42.832;23.918;2023-05-21T13:09:57;7.13;;;3.55;;
40591;SDS011;26301;42.832;23.918;2023-05-21T13:12:30;7.40;;;3.60;;
40591;SDS011;26301;42.832;23.918;2023-05-21T13:14:59;6.47;;;3.47;;
40591;SDS011;26301;42.832;23.918;2023-05-21T13:17:26;8.25;;;3.70;;
40591;SDS011;26301;42.832;23.918;2023-05-21T13:20:06;7.72;;;3.20;;
40591;SDS011;26301;42.832;23.918;2023-05-21T13:22:36;5.85;;;3.65;;
40591;SDS011;26301;42.832;23.918;2023-05-21T13:25:13;5.82;;;3.42;;
40591;SDS011;26301;42.832;23.918;2023-05-21T13:27:41;6.90;;;3.78;;
40591;SDS011;26301;42.832;23.918;2023-05-21T13:30:08;5.00;;;2.78;;
40591;SDS011;26301;42.832;23.918;2023-05-21T13:32:36;6.18;;;3.20;;
40591;SDS011;26301;42.832;23.918;2023-05-21T13:35:02;7.28;;;3.13;;
40591;SDS011;26301;42.832;23.918;2023-05-21T13:37:29;7.88;;;3.20;;
40591;SDS011;26301;42.832;23.918;2023-05-21T13:39:55;10.40;;;2.95;;
40591;SDS011;26301;42.832;23.918;2023-05-21T13:42:22;5.32;;;2.97;;
40591;SDS011;26301;42.832;23.918;2023-05-21T13:44:48;4.75;;;2.72;;
40591;SDS011;26301;42.832;23.918;2023-05-21T13:47:15;3.97;;;2.70;;
40591;SDS011;26301;42.832;23.918;2023-05-21T13:49:41;7.65;;;3.10;;
40591;SDS011;26301;42.832;23.918;2023-05-21T13:52:08;5.75;;;2.97;;
40591;SDS011;26301;42.832;23.918;2023-05-21T13:54:34;6.50;;;2.70;;
40591;SDS011;26301;42.832;23.918;2023-05-21T13:57:01;3.45;;;2.60;;
40591;SDS011;26301;42.832;23.918;2023-05-21T13:59:27;6.95;;;3.20;;
40591;SDS011;26301;42.832;23.918;2023-05-21T14:01:54;13.57;;;3.50;;
40591;SDS011;26301;42.832;23.918;2023-05-21T14:04:22;8.40;;;2.83;;
40591;SDS011;26301;42.832;23.918;2023-05-21T14:06:50;4.85;;;2.90;;
40591;SDS011;26301;42.832;23.918;2023-05-21T14:09:17;7.68;;;2.90;;
40591;SDS011;26301;42.832;23.918;2023-05-21T14:11:43;5.00;;;2.70;;
40591;SDS011;26301;42.832;23.918;2023-05-21T14:14:09;5.32;;;2.83;;
40591;SDS011;26301;42.832;23.918;2023-05-21T14:16:35;4.18;;;2.72;;
40591;SDS011;26301;42.832;23.918;2023-05-21T14:19:02;7.93;;;3.25;;
40591;SDS011;26301;42.832;23.918;2023-05-21T14:21:28;6.15;;;2.85;;
40591;SDS011;26301;42.832;23.918;2023-05-21T14:23:54;4.97;;;2.75;;
40591;SDS011;26301;42.832;23.918;2023-05-21T14:26:19;6.00;;;2.97;;
40591;SDS011;26301;42.832;23.918;2023-05-21T14:28:46;5.22;;;3.17;;
40591;SDS011;26301;42.832;23.918;2023-05-21T14:31:13;8.48;;;3.20;;
40591;SDS011;26301;42.832;23.918;2023-05-21T14:33:39;5.32;;;2.90;;
40591;SDS011;26301;42.832;23.918;2023-05-21T14:36:05;6.43;;;3.00;;
40591;SDS011;26301;42.832;23.918;2023-05-21T14:38:32;6.60;;;3.45;;
40591;SDS011;26301;42.832;23.918;2023-05-21T14:40:57;13.35;;;4.00;;
40591;SDS011;26301;42.832;23.918;2023-05-21T14:43:23;7.15;;;3.17;;
40591;SDS011;26301;42.832;23.918;2023-05-21T14:45:49;5.82;;;3.17;;
40591;SDS011;26301;42.832;23.918;2023-05-21T14:48:15;5.40;;;3.22;;
40591;SDS011;26301;42.832;23.918;2023-05-21T14:50:42;13.98;;;4.97;;
40591;SDS011;26301;42.832;23.918;2023-05-21T14:53:10;5.70;;;3.25;;
40591;SDS011;26301;42.832;23.918;2023-05-21T14:55:36;5.50;;;2.97;;
40591;SDS011;26301;42.832;23.918;2023-05-21T14:58:03;6.50;;;3.40;;
40591;SDS011;26301;42.832;23.918;2023-05-21T15:00:30;6.88;;;4.15;;